Station Historical Data
Daily Summary for March 1, 2012 Units:  Both    English   Metric
« Previous Day
Next Day »
Daily Weekly Monthly Yearly Custom
  High: Low: Average:
Temperature: 71.9 °F /  22.2 °C 45.9 °F /  7.7 °C 60.9 °F /  16.1 °C
Dew Point: 62.2 °F /  16.8 °C 29.3 °F /  -1.5 °C 37.6 °F /  3.1 °C
Humidity: 93% 24% 44%
Wind Speed: 14.0mph /  22.5km/h - 2.7mph /  4.3km/h
Wind Gust: 14.0mph /  22.5km/h - -
Wind- - SSW
Pressure: 29.95 in /  1014.1 hPa 29.75 in /  1007.3 hPa -
Precipitation: 0.00 in /  0 mm    
Historical Graphs
 
 
Tabular Data for March 1, 2012
Time Temperature Dew Point Pressure Wind Wind Speed Wind Gust Humidity Rainfall Rate (Hourly) Conditions
00:00 64.3 °F /  17.9 °C 62.2 °F /  16.8 °C 29.85in /  1010.7hPa WSW 5.0mph /  8km/h 8.0mph /  12.9km/h 93% 0.00in /  0mm
00:01 64.3 °F /  17.9 °C 62.2 °F /  16.8 °C 29.85in /  1010.7hPa SW 5.0mph /  8km/h 8.0mph /  12.9km/h 93% 0.00in /  0mm
00:06 64.1 °F /  17.8 °C 61.4 °F /  16.3 °C 29.85in /  1010.7hPa WSW 8.0mph /  12.9km/h 13.0mph /  20.9km/h 91% 0.00in /  0mm
00:11 63.5 °F /  17.5 °C 59.6 °F /  15.3 °C 29.85in /  1010.7hPa WSW 6.0mph /  9.7km/h 10.0mph /  16.1km/h 87% 0.00in /  0mm
00:16 62.6 °F /  17 °C 58.4 °F /  14.7 °C 29.85in /  1010.7hPa SW 6.0mph /  9.7km/h 7.0mph /  11.3km/h 86% 0.00in /  0mm
00:21 62.0 °F /  16.7 °C 57.5 °F /  14.2 °C 29.86in /  1011.1hPa WSW 6.0mph /  9.7km/h 9.0mph /  14.5km/h 85% 0.00in /  0mm
00:26 61.6 °F /  16.4 °C 56.7 °F /  13.7 °C 29.86in /  1011.1hPa WSW 4.0mph /  6.4km/h 9.0mph /  14.5km/h 84% 0.00in /  0mm
00:31 61.2 °F /  16.2 °C 56.3 °F /  13.5 °C 29.86in /  1011.1hPa WNW 2.0mph /  3.2km/h 7.0mph /  11.3km/h 84% 0.00in /  0mm
00:36 60.8 °F /  16 °C 55.9 °F /  13.3 °C 29.86in /  1011.1hPa WSW 4.0mph /  6.4km/h 6.0mph /  9.7km/h 84% 0.00in /  0mm
00:41 60.6 °F /  15.9 °C 56.1 °F /  13.4 °C 29.86in /  1011.1hPa WSW 2.0mph /  3.2km/h 6.0mph /  9.7km/h 85% 0.00in /  0mm
00:47 60.3 °F /  15.7 °C 56.1 °F /  13.4 °C 29.87in /  1011.4hPa WSW 2.0mph /  3.2km/h 5.0mph /  8km/h 86% 0.00in /  0mm
00:52 60.2 °F /  15.7 °C 56.0 °F /  13.3 °C 29.87in /  1011.4hPa WSW 2.0mph /  3.2km/h 4.0mph /  6.4km/h 86% 0.00in /  0mm
00:57 60.1 °F /  15.6 °C 55.9 °F /  13.3 °C 29.87in /  1011.4hPa NW 14.0mph /  22.5km/h 14.0mph /  22.5km/h 86% 0.00in /  0mm
01:01 60.8 °F /  16 °C 47.3 °F /  8.5 °C 29.87in /  1011.4hPa NW 9.0mph /  14.5km/h 11.0mph /  17.7km/h 61% 0.00in /  0mm
01:07 61.0 °F /  16.1 °C 43.8 °F /  6.6 °C 29.88in /  1011.7hPa NW 3.0mph /  4.8km/h 9.0mph /  14.5km/h 53% 0.00in /  0mm
01:12 61.0 °F /  16.1 °C 44.2 °F /  6.8 °C 29.88in /  1011.7hPa NW 3.0mph /  4.8km/h 9.0mph /  14.5km/h 54% 0.00in /  0mm
01:17 60.3 °F /  15.7 °C 44.1 °F /  6.7 °C 29.88in /  1011.7hPa WNW 4.0mph /  6.4km/h 5.0mph /  8km/h 55% 0.00in /  0mm
01:22 60.2 °F /  15.7 °C 44.5 °F /  6.9 °C 29.88in /  1011.7hPa WNW 2.0mph /  3.2km/h 4.0mph /  6.4km/h 56% 0.00in /  0mm
01:27 59.9 °F /  15.5 °C 43.2 °F /  6.2 °C 29.88in /  1011.7hPa NW 3.0mph /  4.8km/h 4.0mph /  6.4km/h 54% 0.00in /  0mm
01:32 59.8 °F /  15.4 °C 43.6 °F /  6.4 °C 29.88in /  1011.7hPa WNW 3.0mph /  4.8km/h 7.0mph /  11.3km/h 55% 0.00in /  0mm
01:37 59.6 °F /  15.3 °C 43.4 °F /  6.3 °C 29.88in /  1011.7hPa West 1.0mph /  1.6km/h 4.0mph /  6.4km/h 55% 0.00in /  0mm
01:42 59.3 °F /  15.2 °C 43.2 °F /  6.2 °C 29.88in /  1011.7hPa WNW 3.0mph /  4.8km/h 4.0mph /  6.4km/h 55% 0.00in /  0mm
01:47 59.3 °F /  15.2 °C 42.7 °F /  5.9 °C 29.88in /  1011.7hPa WNW 4.0mph /  6.4km/h 5.0mph /  8km/h 54% 0.00in /  0mm
01:52 59.0 °F /  15 °C 42.9 °F /  6.1 °C 29.88in /  1011.7hPa WNW 3.0mph /  4.8km/h 5.0mph /  8km/h 55% 0.00in /  0mm
01:57 58.7 °F /  14.8 °C 42.6 °F /  5.9 °C 29.88in /  1011.7hPa WNW 3.0mph /  4.8km/h 5.0mph /  8km/h 55% 0.00in /  0mm
02:02 58.3 °F /  14.6 °C 42.7 °F /  5.9 °C 29.88in /  1011.7hPa NW 2.0mph /  3.2km/h 3.0mph /  4.8km/h 56% 0.00in /  0mm
02:07 58.1 °F /  14.5 °C 42.5 °F /  5.8 °C 29.88in /  1011.7hPa West 1.0mph /  1.6km/h 2.0mph /  3.2km/h 56% 0.00in /  0mm
02:12 57.9 °F /  14.4 °C 41.8 °F /  5.4 °C 29.89in /  1012.1hPa Calm   1.0mph /  1.6km/h 55% 0.00in /  0mm
02:17 57.9 °F /  14.4 °C 41.8 °F /  5.4 °C 29.89in /  1012.1hPa West 1.0mph /  1.6km/h 2.0mph /  3.2km/h 55% 0.00in /  0mm
02:22 57.8 °F /  14.3 °C 41.8 °F /  5.4 °C 29.89in /  1012.1hPa Calm     55% 0.00in /  0mm
02:27 57.5 °F /  14.2 °C 41.9 °F /  5.5 °C 29.89in /  1012.1hPa Calm     56% 0.00in /  0mm
02:32 57.3 °F /  14.1 °C 41.8 °F /  5.4 °C 29.89in /  1012.1hPa WNW 1.0mph /  1.6km/h 2.0mph /  3.2km/h 56% 0.00in /  0mm
02:37 57.3 °F /  14.1 °C 41.8 °F /  5.4 °C 29.89in /  1012.1hPa WNW 1.0mph /  1.6km/h 1.0mph /  1.6km/h 56% 0.00in /  0mm
02:42 57.1 °F /  13.9 °C 41.6 °F /  5.3 °C 29.89in /  1012.1hPa WNW 1.0mph /  1.6km/h 1.0mph /  1.6km/h 56% 0.00in /  0mm
02:47 56.6 °F /  13.7 °C 41.1 °F /  5.1 °C 29.89in /  1012.1hPa WNW 1.0mph /  1.6km/h 1.0mph /  1.6km/h 56% 0.00in /  0mm
02:52 56.4 °F /  13.6 °C 40.9 °F /  4.9 °C 29.89in /  1012.1hPa WNW 1.0mph /  1.6km/h 1.0mph /  1.6km/h 56% 0.00in /  0mm
02:57 56.3 °F /  13.5 °C 40.8 °F /  4.9 °C 29.89in /  1012.1hPa WNW 2.0mph /  3.2km/h 3.0mph /  4.8km/h 56% 0.00in /  0mm
03:02 56.2 °F /  13.4 °C 40.3 °F /  4.6 °C 29.89in /  1012.1hPa WNW 1.0mph /  1.6km/h 3.0mph /  4.8km/h 55% 0.00in /  0mm
03:07 55.9 °F /  13.3 °C 40.0 °F /  4.4 °C 29.89in /  1012.1hPa NW 3.0mph /  4.8km/h 4.0mph /  6.4km/h 55% 0.00in /  0mm
03:12 55.5 °F /  13.1 °C 39.6 °F /  4.2 °C 29.89in /  1012.1hPa WNW 2.0mph /  3.2km/h 4.0mph /  6.4km/h 55% 0.00in /  0mm
03:17 55.1 °F /  12.8 °C 39.2 °F /  4 °C 29.90in /  1012.4hPa NNW 4.0mph /  6.4km/h 5.0mph /  8km/h 55% 0.00in /  0mm
03:22 55.0 °F /  12.8 °C 39.2 °F /  4 °C 29.90in /  1012.4hPa WNW 4.0mph /  6.4km/h 6.0mph /  9.7km/h 55% 0.00in /  0mm
03:27 54.8 °F /  12.7 °C 38.5 °F /  3.6 °C 29.90in /  1012.4hPa NW 3.0mph /  4.8km/h 7.0mph /  11.3km/h 54% 0.00in /  0mm
03:32 54.5 °F /  12.5 °C 39.6 °F /  4.2 °C 29.89in /  1012.1hPa NNW 4.0mph /  6.4km/h 5.0mph /  8km/h 57% 0.00in /  0mm
03:38 54.0 °F /  12.2 °C 38.7 °F /  3.7 °C 29.89in /  1012.1hPa NNW 3.0mph /  4.8km/h 6.0mph /  9.7km/h 56% 0.00in /  0mm
03:43 53.9 °F /  12.2 °C 37.7 °F /  3.2 °C 29.89in /  1012.1hPa NNW 4.0mph /  6.4km/h 6.0mph /  9.7km/h 54% 0.00in /  0mm
03:48 54.1 °F /  12.3 °C 35.9 °F /  2.2 °C 29.89in /  1012.1hPa NW 7.0mph /  11.3km/h 7.0mph /  11.3km/h 50% 0.00in /  0mm
03:53 54.0 °F /  12.2 °C 35.3 °F /  1.8 °C 29.89in /  1012.1hPa NW 7.0mph /  11.3km/h 8.0mph /  12.9km/h 49% 0.00in /  0mm
03:58 53.9 °F /  12.2 °C 34.7 °F /  1.5 °C 29.89in /  1012.1hPa NW 5.0mph /  8km/h 7.0mph /  11.3km/h 48% 0.00in /  0mm
04:03 53.8 °F /  12.1 °C 34.6 °F /  1.4 °C 29.89in /  1012.1hPa NW 5.0mph /  8km/h 8.0mph /  12.9km/h 48% 0.00in /  0mm
04:08 53.6 °F /  12 °C 34.4 °F /  1.3 °C 29.89in /  1012.1hPa NW 3.0mph /  4.8km/h 6.0mph /  9.7km/h 48% 0.00in /  0mm
04:13 53.6 °F /  12 °C 33.9 °F /  1.1 °C 29.89in /  1012.1hPa NW 3.0mph /  4.8km/h 5.0mph /  8km/h 47% 0.00in /  0mm
04:18 53.4 °F /  11.9 °C 34.2 °F /  1.2 °C 29.89in /  1012.1hPa NW 3.0mph /  4.8km/h 4.0mph /  6.4km/h 48% 0.00in /  0mm
04:23 53.1 °F /  11.7 °C 33.4 °F /  0.8 °C 29.89in /  1012.1hPa NW 3.0mph /  4.8km/h 5.0mph /  8km/h 47% 0.00in /  0mm
04:28 52.8 °F /  11.6 °C 33.7 °F /  0.9 °C 29.89in /  1012.1hPa NW 3.0mph /  4.8km/h 6.0mph /  9.7km/h 48% 0.00in /  0mm
04:33 52.6 °F /  11.4 °C 33.5 °F /  0.8 °C 29.89in /  1012.1hPa NW 3.0mph /  4.8km/h 5.0mph /  8km/h 48% 0.00in /  0mm
04:38 52.3 °F /  11.3 °C 33.7 °F /  0.9 °C 29.89in /  1012.1hPa WNW 5.0mph /  8km/h 7.0mph /  11.3km/h 49% 0.00in /  0mm
04:43 52.2 °F /  11.2 °C 33.6 °F /  0.9 °C 29.89in /  1012.1hPa NW 4.0mph /  6.4km/h 5.0mph /  8km/h 49% 0.00in /  0mm
04:48 52.2 °F /  11.2 °C 33.1 °F /  0.6 °C 29.89in /  1012.1hPa NW 3.0mph /  4.8km/h 6.0mph /  9.7km/h 48% 0.00in /  0mm
04:53 52.1 °F /  11.2 °C 33.0 °F /  0.6 °C 29.89in /  1012.1hPa NW 3.0mph /  4.8km/h 6.0mph /  9.7km/h 48% 0.00in /  0mm
04:58 51.9 °F /  11.1 °C 32.8 °F /  0.4 °C 29.90in /  1012.4hPa NW 3.0mph /  4.8km/h 6.0mph /  9.7km/h 48% 0.00in /  0mm
05:03 52.0 °F /  11.1 °C 32.4 °F /  0.2 °C 29.90in /  1012.4hPa NW 2.0mph /  3.2km/h 5.0mph /  8km/h 47% 0.00in /  0mm
05:08 52.0 °F /  11.1 °C 31.9 °F /  -0.1 °C 29.90in /  1012.4hPa NW 3.0mph /  4.8km/h 4.0mph /  6.4km/h 46% 0.00in /  0mm
05:13 52.0 °F /  11.1 °C 31.9 °F /  -0.1 °C 29.90in /  1012.4hPa NW 3.0mph /  4.8km/h 3.0mph /  4.8km/h 46% 0.00in /  0mm
05:18 51.9 °F /  11.1 °C 31.8 °F /  -0.1 °C 29.90in /  1012.4hPa NW 2.0mph /  3.2km/h 3.0mph /  4.8km/h 46% 0.00in /  0mm
05:23 51.7 °F /  10.9 °C 31.6 °F /  -0.2 °C 29.90in /  1012.4hPa NW 3.0mph /  4.8km/h 4.0mph /  6.4km/h 46% 0.00in /  0mm
05:28 51.6 °F /  10.9 °C 31.5 °F /  -0.3 °C 29.91in /  1012.8hPa NW 3.0mph /  4.8km/h 4.0mph /  6.4km/h 46% 0.00in /  0mm
05:33 51.6 °F /  10.9 °C 31.5 °F /  -0.3 °C 29.91in /  1012.8hPa NW 2.0mph /  3.2km/h 3.0mph /  4.8km/h 46% 0.00in /  0mm
05:38 51.6 °F /  10.9 °C 31.0 °F /  -0.6 °C 29.91in /  1012.8hPa NW 2.0mph /  3.2km/h 3.0mph /  4.8km/h 45% 0.00in /  0mm
05:43 51.6 °F /  10.9 °C 31.0 °F /  -0.6 °C 29.92in /  1013.1hPa NW 2.0mph /  3.2km/h 3.0mph /  4.8km/h 45% 0.00in /  0mm
05:48 51.5 °F /  10.8 °C 30.9 °F /  -0.6 °C 29.92in /  1013.1hPa NW 2.0mph /  3.2km/h 2.0mph /  3.2km/h 45% 0.00in /  0mm
05:53 51.5 °F /  10.8 °C 30.9 °F /  -0.6 °C 29.92in /  1013.1hPa NW 2.0mph /  3.2km/h 2.0mph /  3.2km/h 45% 0.00in /  0mm
05:58 51.4 °F /  10.8 °C 30.8 °F /  -0.7 °C 29.92in /  1013.1hPa NW 2.0mph /  3.2km/h 2.0mph /  3.2km/h 45% 0.00in /  0mm
06:03 51.4 °F /  10.8 °C 30.2 °F /  -1 °C 29.92in /  1013.1hPa NW 2.0mph /  3.2km/h 3.0mph /  4.8km/h 44% 0.00in /  0mm
06:08 51.3 °F /  10.7 °C 30.7 °F /  -0.7 °C 29.92in /  1013.1hPa NW 2.0mph /  3.2km/h 2.0mph /  3.2km/h 45% 0.00in /  0mm
06:13 51.1 °F /  10.6 °C 30.5 °F /  -0.8 °C 29.92in /  1013.1hPa NW 2.0mph /  3.2km/h 2.0mph /  3.2km/h 45% 0.00in /  0mm
06:18 50.9 °F /  10.5 °C 30.3 °F /  -0.9 °C 29.92in /  1013.1hPa NW 2.0mph /  3.2km/h 2.0mph /  3.2km/h 45% 0.00in /  0mm
06:23 50.7 °F /  10.4 °C 30.1 °F /  -1.1 °C 29.92in /  1013.1hPa NW 1.0mph /  1.6km/h 2.0mph /  3.2km/h 45% 0.00in /  0mm
06:28 50.6 °F /  10.3 °C 30.6 °F /  -0.8 °C 29.92in /  1013.1hPa NW 1.0mph /  1.6km/h 2.0mph /  3.2km/h 46% 0.00in /  0mm
06:34 50.1 °F /  10.1 °C 30.1 °F /  -1.1 °C 29.92in /  1013.1hPa Calm     46% 0.00in /  0mm
06:39 49.5 °F /  9.7 °C 30.1 °F /  -1.1 °C 29.92in /  1013.1hPa Calm     47% 0.00in /  0mm
06:44 49.2 °F /  9.6 °C 29.9 °F /  -1.2 °C 29.92in /  1013.1hPa NW 1.0mph /  1.6km/h 1.0mph /  1.6km/h 47% 0.00in /  0mm
06:49 49.5 °F /  9.7 °C 30.1 °F /  -1.1 °C 29.92in /  1013.1hPa Calm   1.0mph /  1.6km/h 47% 0.00in /  0mm
06:54 49.3 °F /  9.6 °C 29.9 °F /  -1.2 °C 29.92in /  1013.1hPa Calm     47% 0.00in /  0mm
06:59 48.6 °F /  9.2 °C 29.8 °F /  -1.2 °C 29.92in /  1013.1hPa Calm     48% 0.00in /  0mm
07:04 48.3 °F /  9.1 °C 30.0 °F /  -1.1 °C 29.92in /  1013.1hPa Calm     49% 0.00in /  0mm
07:09 47.9 °F /  8.8 °C 29.7 °F /  -1.3 °C 29.92in /  1013.1hPa Calm     49% 0.00in /  0mm
07:14 47.3 °F /  8.5 °C 29.6 °F /  -1.3 °C 29.92in /  1013.1hPa Calm     50% 0.00in /  0mm
07:19 46.6 °F /  8.1 °C 29.5 °F /  -1.4 °C 29.92in /  1013.1hPa Calm     51% 0.00in /  0mm
07:24 45.9 °F /  7.7 °C 29.3 °F /  -1.5 °C 29.92in /  1013.1hPa Calm     52% 0.00in /  0mm
07:29 46.0 °F /  7.8 °C 29.4 °F /  -1.4 °C 29.93in /  1013.4hPa Calm     52% 0.00in /  0mm
07:34 46.4 °F /  8 °C 29.3 °F /  -1.5 °C 29.93in /  1013.4hPa Calm     51% 0.00in /  0mm
07:39 46.2 °F /  7.9 °C 29.6 °F /  -1.3 °C 29.93in /  1013.4hPa Calm     52% 0.00in /  0mm
07:44 46.2 °F /  7.9 °C 29.6 °F /  -1.3 °C 29.93in /  1013.4hPa Calm     52% 0.00in /  0mm
07:49 46.4 °F /  8 °C 29.8 °F /  -1.2 °C 29.93in /  1013.4hPa Calm     52% 0.00in /  0mm
07:54 46.8 °F /  8.2 °C 30.1 °F /  -1.1 °C 29.93in /  1013.4hPa Calm     52% 0.00in /  0mm
07:59 47.3 °F /  8.5 °C 30.6 °F /  -0.8 °C 29.93in /  1013.4hPa Calm     52% 0.00in /  0mm
08:04 48.2 °F /  9 °C 30.9 °F /  -0.6 °C 29.93in /  1013.4hPa Calm     51% 0.00in /  0mm
08:09 49.2 °F /  9.6 °C 31.4 °F /  -0.3 °C 29.93in /  1013.4hPa NW 1.0mph /  1.6km/h 1.0mph /  1.6km/h 50% 0.00in /  0mm
08:14 49.3 °F /  9.6 °C 30.5 °F /  -0.8 °C 29.94in /  1013.8hPa Calm     48% 0.00in /  0mm
08:19 49.9 °F /  9.9 °C 33.5 °F /  0.8 °C 29.94in /  1013.8hPa NW 1.0mph /  1.6km/h 1.0mph /  1.6km/h 53% 0.00in /  0mm
08:24 50.0 °F /  10 °C 34.5 °F /  1.4 °C 29.94in /  1013.8hPa Calm   1.0mph /  1.6km/h 55% 0.00in /  0mm
08:29 50.4 °F /  10.2 °C 34.9 °F /  1.6 °C 29.94in /  1013.8hPa SSE 1.0mph /  1.6km/h 1.0mph /  1.6km/h 55% 0.00in /  0mm
08:34 51.3 °F /  10.7 °C 35.2 °F /  1.8 °C 29.95in /  1014.1hPa SE 1.0mph /  1.6km/h 2.0mph /  3.2km/h 54% 0.00in /  0mm
08:39 51.9 °F /  11.1 °C 35.8 °F /  2.1 °C 29.95in /  1014.1hPa SSE 2.0mph /  3.2km/h 2.0mph /  3.2km/h 54% 0.00in /  0mm
08:45 52.8 °F /  11.6 °C 38.9 °F /  3.8 °C 29.95in /  1014.1hPa SSE 2.0mph /  3.2km/h 2.0mph /  3.2km/h 59% 0.00in /  0mm
08:50 53.5 °F /  11.9 °C 40.8 °F /  4.9 °C 29.95in /  1014.1hPa SSE 1.0mph /  1.6km/h 2.0mph /  3.2km/h 62% 0.00in /  0mm
08:55 53.7 °F /  12.1 °C 36.5 °F /  2.5 °C 29.95in /  1014.1hPa SSW 1.0mph /  1.6km/h 1.0mph /  1.6km/h 52% 0.00in /  0mm
09:00 54.2 °F /  12.3 °C 37.0 °F /  2.8 °C 29.95in /  1014.1hPa Calm     52% 0.00in /  0mm
09:05 55.3 °F /  12.9 °C 39.4 °F /  4.1 °C 29.95in /  1014.1hPa Calm   1.0mph /  1.6km/h 55% 0.00in /  0mm
09:10 55.4 °F /  13 °C 35.0 °F /  1.7 °C 29.95in /  1014.1hPa Calm   1.0mph /  1.6km/h 46% 0.00in /  0mm
09:15 55.4 °F /  13 °C 35.0 °F /  1.7 °C 29.95in /  1014.1hPa West 1.0mph /  1.6km/h 1.0mph /  1.6km/h 46% 0.00in /  0mm
09:20 55.5 °F /  13.1 °C 36.2 °F /  2.3 °C 29.95in /  1014.1hPa WSW 1.0mph /  1.6km/h 2.0mph /  3.2km/h 48% 0.00in /  0mm
09:25 55.9 °F /  13.3 °C 36.0 °F /  2.2 °C 29.95in /  1014.1hPa Calm   2.0mph /  3.2km/h 47% 0.00in /  0mm
09:30 56.3 °F /  13.5 °C 37.9 °F /  3.3 °C 29.95in /  1014.1hPa SW 1.0mph /  1.6km/h 2.0mph /  3.2km/h 50% 0.00in /  0mm
09:35 56.7 °F /  13.7 °C 35.0 °F /  1.7 °C 29.95in /  1014.1hPa West 1.0mph /  1.6km/h 1.0mph /  1.6km/h 44% 0.00in /  0mm
09:37 56.7 °F /  13.7 °C 35.6 °F /  2 °C 29.95in /  1014.1hPa Calm   1.0mph /  1.6km/h 45% 0.00in /  0mm
09:42 57.8 °F /  14.3 °C 37.2 °F /  2.9 °C 29.95in /  1014.1hPa WNW 1.0mph /  1.6km/h 1.0mph /  1.6km/h 46% 0.00in /  0mm
09:47 58.1 °F /  14.5 °C 33.9 °F /  1.1 °C 29.95in /  1014.1hPa NW 1.0mph /  1.6km/h 2.0mph /  3.2km/h 40% 0.00in /  0mm
09:52 58.1 °F /  14.5 °C 34.5 °F /  1.4 °C 29.95in /  1014.1hPa Calm   1.0mph /  1.6km/h 41% 0.00in /  0mm
09:57 58.6 °F /  14.8 °C 35.6 °F /  2 °C 29.95in /  1014.1hPa WNW 1.0mph /  1.6km/h 1.0mph /  1.6km/h 42% 0.00in /  0mm
10:02 58.9 °F /  14.9 °C 37.0 °F /  2.8 °C 29.95in /  1014.1hPa SSE 1.0mph /  1.6km/h 1.0mph /  1.6km/h 44% 0.00in /  0mm
10:07 59.6 °F /  15.3 °C 35.9 °F /  2.2 °C 29.95in /  1014.1hPa North 2.0mph /  3.2km/h 2.0mph /  3.2km/h 41% 0.00in /  0mm
10:12 59.3 °F /  15.2 °C 33.7 °F /  0.9 °C 29.95in /  1014.1hPa North 1.0mph /  1.6km/h 3.0mph /  4.8km/h 38% 0.00in /  0mm
10:17 59.2 °F /  15.1 °C 33.6 °F /  0.9 °C 29.95in /  1014.1hPa NW 1.0mph /  1.6km/h 2.0mph /  3.2km/h 38% 0.00in /  0mm
10:22 59.9 °F /  15.5 °C 35.5 °F /  1.9 °C 29.95in /  1014.1hPa Calm   1.0mph /  1.6km/h 40% 0.00in /  0mm
10:27 60.6 °F /  15.9 °C 37.4 °F /  3 °C 29.95in /  1014.1hPa East 1.0mph /  1.6km/h 2.0mph /  3.2km/h 42% 0.00in /  0mm
10:32 60.3 °F /  15.7 °C 33.3 °F /  0.7 °C 29.95in /  1014.1hPa East 1.0mph /  1.6km/h 2.0mph /  3.2km/h 36% 0.00in /  0mm
10:37 60.6 °F /  15.9 °C 32.8 °F /  0.4 °C 29.95in /  1014.1hPa East 1.0mph /  1.6km/h 3.0mph /  4.8km/h 35% 0.00in /  0mm
10:42 60.9 °F /  16.1 °C 35.1 °F /  1.7 °C 29.94in /  1013.8hPa East 2.0mph /  3.2km/h 3.0mph /  4.8km/h 38% 0.00in /  0mm
10:47 60.8 °F /  16 °C 33.0 °F /  0.6 °C 29.94in /  1013.8hPa East 1.0mph /  1.6km/h 3.0mph /  4.8km/h 35% 0.00in /  0mm
10:52 60.8 °F /  16 °C 30.8 °F /  -0.7 °C 29.95in /  1014.1hPa East 1.0mph /  1.6km/h 2.0mph /  3.2km/h 32% 0.00in /  0mm
10:57 60.8 °F /  16 °C 32.3 °F /  0.2 °C 29.94in /  1013.8hPa East 1.0mph /  1.6km/h 3.0mph /  4.8km/h 34% 0.00in /  0mm
11:02 60.9 °F /  16.1 °C 30.9 °F /  -0.6 °C 29.94in /  1013.8hPa ESE 1.0mph /  1.6km/h 4.0mph /  6.4km/h 32% 0.00in /  0mm
11:07 61.5 °F /  16.4 °C 31.4 °F /  -0.3 °C 29.95in /  1014.1hPa SE 2.0mph /  3.2km/h 3.0mph /  4.8km/h 32% 0.00in /  0mm
11:12 61.8 °F /  16.6 °C 30.9 °F /  -0.6 °C 29.95in /  1014.1hPa ESE 2.0mph /  3.2km/h 3.0mph /  4.8km/h 31% 0.00in /  0mm
11:17 61.7 °F /  16.5 °C 32.3 °F /  0.2 °C 29.95in /  1014.1hPa SSE 1.0mph /  1.6km/h 3.0mph /  4.8km/h 33% 0.00in /  0mm
11:22 61.8 °F /  16.6 °C 33.2 °F /  0.7 °C 29.95in /  1014.1hPa SSW 3.0mph /  4.8km/h 3.0mph /  4.8km/h 34% 0.00in /  0mm
11:27 62.4 °F /  16.9 °C 32.2 °F /  0.1 °C 29.94in /  1013.8hPa Calm   2.0mph /  3.2km/h 32% 0.00in /  0mm
11:32 62.9 °F /  17.2 °C 31.0 °F /  -0.6 °C 29.94in /  1013.8hPa Calm   2.0mph /  3.2km/h 30% 0.00in /  0mm
11:38 62.6 °F /  17 °C 33.9 °F /  1.1 °C 29.94in /  1013.8hPa West 1.0mph /  1.6km/h 4.0mph /  6.4km/h 34% 0.00in /  0mm
11:43 63.4 °F /  17.4 °C 32.3 °F /  0.2 °C 29.94in /  1013.8hPa SSE 3.0mph /  4.8km/h 4.0mph /  6.4km/h 31% 0.00in /  0mm
11:48 63.5 °F /  17.5 °C 36.1 °F /  2.3 °C 29.94in /  1013.8hPa NNW 1.0mph /  1.6km/h 1.0mph /  1.6km/h 36% 0.00in /  0mm
11:53 63.8 °F /  17.7 °C 31.8 °F /  -0.1 °C 29.94in /  1013.8hPa SSE 5.0mph /  8km/h 5.0mph /  8km/h 30% 0.00in /  0mm
11:58 63.7 °F /  17.6 °C 30.9 °F /  -0.6 °C 29.93in /  1013.4hPa ESE 1.0mph /  1.6km/h 4.0mph /  6.4km/h 29% 0.00in /  0mm
12:03 63.9 °F /  17.7 °C 32.7 °F /  0.4 °C 29.93in /  1013.4hPa WSW 2.0mph /  3.2km/h 3.0mph /  4.8km/h 31% 0.00in /  0mm
12:08 64.1 °F /  17.8 °C 35.9 °F /  2.2 °C 29.93in /  1013.4hPa South 1.0mph /  1.6km/h 2.0mph /  3.2km/h 35% 0.00in /  0mm
12:13 64.3 °F /  17.9 °C 33.8 °F /  1 °C 29.93in /  1013.4hPa SW 2.0mph /  3.2km/h 4.0mph /  6.4km/h 32% 0.00in /  0mm
12:18 64.5 °F /  18.1 °C 33.2 °F /  0.7 °C 29.93in /  1013.4hPa SE 4.0mph /  6.4km/h 7.0mph /  11.3km/h 31% 0.00in /  0mm
12:23 64.4 °F /  18 °C 33.9 °F /  1.1 °C 29.92in /  1013.1hPa South 3.0mph /  4.8km/h 7.0mph /  11.3km/h 32% 0.00in /  0mm
12:29 64.7 °F /  18.2 °C 32.6 °F /  0.3 °C 29.92in /  1013.1hPa South 5.0mph /  8km/h 7.0mph /  11.3km/h 30% 0.00in /  0mm
12:34 64.7 °F /  18.2 °C 31.7 °F /  -0.2 °C 29.92in /  1013.1hPa Calm   7.0mph /  11.3km/h 29% 0.00in /  0mm
12:39 65.1 °F /  18.4 °C 36.1 °F /  2.3 °C 29.92in /  1013.1hPa WSW 3.0mph /  4.8km/h 8.0mph /  12.9km/h 34% 0.00in /  0mm
12:44 64.8 °F /  18.2 °C 35.0 °F /  1.7 °C 29.92in /  1013.1hPa WNW 4.0mph /  6.4km/h 6.0mph /  9.7km/h 33% 0.00in /  0mm
12:49 65.0 °F /  18.3 °C 36.0 °F /  2.2 °C 29.91in /  1012.8hPa SW 1.0mph /  1.6km/h 5.0mph /  8km/h 34% 0.00in /  0mm
12:54 65.6 °F /  18.7 °C 33.4 °F /  0.8 °C 29.91in /  1012.8hPa ESE 1.0mph /  1.6km/h 7.0mph /  11.3km/h 30% 0.00in /  0mm
12:59 65.9 °F /  18.8 °C 36.0 °F /  2.2 °C 29.91in /  1012.8hPa SW 1.0mph /  1.6km/h 5.0mph /  8km/h 33% 0.00in /  0mm
13:04 66.6 °F /  19.2 °C 37.4 °F /  3 °C 29.91in /  1012.8hPa SSE 2.0mph /  3.2km/h 5.0mph /  8km/h 34% 0.00in /  0mm
13:09 66.5 °F /  19.2 °C 35.0 °F /  1.7 °C 29.90in /  1012.4hPa SE 2.0mph /  3.2km/h 3.0mph /  4.8km/h 31% 0.00in /  0mm
13:15 66.9 °F /  19.4 °C 35.3 °F /  1.8 °C 29.90in /  1012.4hPa SW 3.0mph /  4.8km/h 5.0mph /  8km/h 31% 0.00in /  0mm
13:20 66.7 °F /  19.3 °C 35.9 °F /  2.2 °C 29.89in /  1012.1hPa ESE 2.0mph /  3.2km/h 6.0mph /  9.7km/h 32% 0.00in /  0mm
13:25 66.3 °F /  19.1 °C 36.4 °F /  2.4 °C 29.89in /  1012.1hPa ESE 1.0mph /  1.6km/h 8.0mph /  12.9km/h 33% 0.00in /  0mm
13:30 66.1 °F /  18.9 °C 36.9 °F /  2.7 °C 29.88in /  1011.7hPa ESE 2.0mph /  3.2km/h 4.0mph /  6.4km/h 34% 0.00in /  0mm
13:35 66.6 °F /  19.2 °C 37.4 °F /  3 °C 29.88in /  1011.7hPa SSW 3.0mph /  4.8km/h 9.0mph /  14.5km/h 34% 0.00in /  0mm
13:40 67.3 °F /  19.6 °C 35.7 °F /  2.1 °C 29.87in /  1011.4hPa South 2.0mph /  3.2km/h 7.0mph /  11.3km/h 31% 0.00in /  0mm
13:45 67.7 °F /  19.8 °C 35.2 °F /  1.8 °C 29.87in /  1011.4hPa SW 6.0mph /  9.7km/h 6.0mph /  9.7km/h 30% 0.00in /  0mm
13:50 67.6 °F /  19.8 °C 36.7 °F /  2.6 °C 29.87in /  1011.4hPa SW 5.0mph /  8km/h 6.0mph /  9.7km/h 32% 0.00in /  0mm
13:55 67.8 °F /  19.9 °C 36.1 °F /  2.3 °C 29.86in /  1011.1hPa SE 1.0mph /  1.6km/h 3.0mph /  4.8km/h 31% 0.00in /  0mm
14:00 68.5 °F /  20.3 °C 34.1 °F /  1.2 °C 29.86in /  1011.1hPa South 3.0mph /  4.8km/h 6.0mph /  9.7km/h 28% 0.00in /  0mm
14:05 68.6 °F /  20.3 °C 35.1 °F /  1.7 °C 29.86in /  1011.1hPa SE 5.0mph /  8km/h 9.0mph /  14.5km/h 29% 0.00in /  0mm
14:10 68.5 °F /  20.3 °C 35.9 °F /  2.2 °C 29.86in /  1011.1hPa SSW 2.0mph /  3.2km/h 4.0mph /  6.4km/h 30% 0.00in /  0mm
14:15 68.8 °F /  20.4 °C 35.3 °F /  1.8 °C 29.86in /  1011.1hPa SSW 3.0mph /  4.8km/h 5.0mph /  8km/h 29% 0.00in /  0mm
14:20 68.9 °F /  20.5 °C 35.4 °F /  1.9 °C 29.85in /  1010.7hPa ESE 2.0mph /  3.2km/h 6.0mph /  9.7km/h 29% 0.00in /  0mm
14:25 68.7 °F /  20.4 °C 36.0 °F /  2.2 °C 29.85in /  1010.7hPa SE 6.0mph /  9.7km/h 9.0mph /  14.5km/h 30% 0.00in /  0mm
14:30 68.6 °F /  20.3 °C 36.8 °F /  2.7 °C 29.85in /  1010.7hPa SE 2.0mph /  3.2km/h 10.0mph /  16.1km/h 31% 0.00in /  0mm
14:35 68.5 °F /  20.3 °C 36.7 °F /  2.6 °C 29.85in /  1010.7hPa SSE 2.0mph /  3.2km/h 8.0mph /  12.9km/h 31% 0.00in /  0mm
14:40 69.0 °F /  20.6 °C 33.7 °F /  0.9 °C 29.85in /  1010.7hPa SW 9.0mph /  14.5km/h 11.0mph /  17.7km/h 27% 0.00in /  0mm
14:45 69.4 °F /  20.8 °C 34.9 °F /  1.6 °C 29.84in /  1010.4hPa SW 8.0mph /  12.9km/h 10.0mph /  16.1km/h 28% 0.00in /  0mm
14:50 69.5 °F /  20.8 °C 33.1 °F /  0.6 °C 29.84in /  1010.4hPa SW 4.0mph /  6.4km/h 8.0mph /  12.9km/h 26% 0.00in /  0mm
14:55 69.7 °F /  20.9 °C 33.3 °F /  0.7 °C 29.84in /  1010.4hPa WSW 2.0mph /  3.2km/h 9.0mph /  14.5km/h 26% 0.00in /  0mm
15:00 69.8 °F /  21 °C 35.3 °F /  1.8 °C 29.84in /  1010.4hPa SW 5.0mph /  8km/h 9.0mph /  14.5km/h 28% 0.00in /  0mm
15:05 69.8 °F /  21 °C 34.3 °F /  1.3 °C 29.84in /  1010.4hPa WSW 4.0mph /  6.4km/h 7.0mph /  11.3km/h 27% 0.00in /  0mm
15:10 70.1 °F /  21.2 °C 33.7 °F /  0.9 °C 29.84in /  1010.4hPa West 4.0mph /  6.4km/h 10.0mph /  16.1km/h 26% 0.00in /  0mm
15:15 70.2 °F /  21.2 °C 35.6 °F /  2 °C 29.83in /  1010hPa SW 4.0mph /  6.4km/h 6.0mph /  9.7km/h 28% 0.00in /  0mm
15:20 70.3 °F /  21.3 °C 36.6 °F /  2.6 °C 29.83in /  1010hPa South 6.0mph /  9.7km/h 6.0mph /  9.7km/h 29% 0.00in /  0mm
15:25 70.6 °F /  21.4 °C 35.9 °F /  2.2 °C 29.83in /  1010hPa SSW 6.0mph /  9.7km/h 9.0mph /  14.5km/h 28% 0.00in /  0mm
15:30 70.8 °F /  21.6 °C 36.1 °F /  2.3 °C 29.83in /  1010hPa SSW 4.0mph /  6.4km/h 7.0mph /  11.3km/h 28% 0.00in /  0mm
15:35 70.9 °F /  21.6 °C 32.3 °F /  0.2 °C 29.83in /  1010hPa West 4.0mph /  6.4km/h 7.0mph /  11.3km/h 24% 0.00in /  0mm
15:36 70.9 °F /  21.6 °C 33.4 °F /  0.8 °C 29.83in /  1010hPa SW 4.0mph /  6.4km/h 4.0mph /  6.4km/h 25% 0.00in /  0mm
15:41 70.7 °F /  21.5 °C 34.2 °F /  1.2 °C 29.83in /  1010hPa SW 4.0mph /  6.4km/h 10.0mph /  16.1km/h 26% 0.00in /  0mm
15:46 70.7 °F /  21.5 °C 34.2 °F /  1.2 °C 29.83in /  1010hPa SE 3.0mph /  4.8km/h 5.0mph /  8km/h 26% 0.00in /  0mm
15:51 71.2 °F /  21.8 °C 34.6 °F /  1.4 °C 29.83in /  1010hPa SW 4.0mph /  6.4km/h 4.0mph /  6.4km/h 26% 0.00in /  0mm
15:56 71.1 °F /  21.7 °C 33.5 °F /  0.8 °C 29.83in /  1010hPa SW 7.0mph /  11.3km/h 9.0mph /  14.5km/h 25% 0.00in /  0mm
16:01 71.1 °F /  21.7 °C 33.5 °F /  0.8 °C 29.83in /  1010hPa SSE 1.0mph /  1.6km/h 4.0mph /  6.4km/h 25% 0.00in /  0mm
16:06 71.6 °F /  22 °C 34.0 °F /  1.1 °C 29.83in /  1010hPa SE 2.0mph /  3.2km/h 5.0mph /  8km/h 25% 0.00in /  0mm
16:11 71.6 °F /  22 °C 34.9 °F /  1.6 °C 29.83in /  1010hPa South 4.0mph /  6.4km/h 7.0mph /  11.3km/h 26% 0.00in /  0mm
16:16 71.4 °F /  21.9 °C 35.7 °F /  2.1 °C 29.83in /  1010hPa SSW 5.0mph /  8km/h 9.0mph /  14.5km/h 27% 0.00in /  0mm
16:21 71.4 °F /  21.9 °C 35.7 °F /  2.1 °C 29.83in /  1010hPa WSW 6.0mph /  9.7km/h 10.0mph /  16.1km/h 27% 0.00in /  0mm
16:26 71.2 °F /  21.8 °C 34.6 °F /  1.4 °C 29.83in /  1010hPa South 5.0mph /  8km/h 9.0mph /  14.5km/h 26% 0.00in /  0mm
16:31 71.3 °F /  21.8 °C 35.6 °F /  2 °C 29.82in /  1009.7hPa SSW 3.0mph /  4.8km/h 8.0mph /  12.9km/h 27% 0.00in /  0mm
16:36 71.4 °F /  21.9 °C 35.7 °F /  2.1 °C 29.82in /  1009.7hPa SW 3.0mph /  4.8km/h 5.0mph /  8km/h 27% 0.00in /  0mm
16:41 71.6 °F /  22 °C 36.8 °F /  2.7 °C 29.82in /  1009.7hPa SW 4.0mph /  6.4km/h 6.0mph /  9.7km/h 28% 0.00in /  0mm
16:46 71.8 °F /  22.1 °C 36.0 °F /  2.2 °C 29.82in /  1009.7hPa South 6.0mph /  9.7km/h 7.0mph /  11.3km/h 27% 0.00in /  0mm
16:51 71.7 °F /  22.1 °C 35.0 °F /  1.7 °C 29.82in /  1009.7hPa SSE 3.0mph /  4.8km/h 5.0mph /  8km/h 26% 0.00in /  0mm
16:56 71.9 °F /  22.2 °C 37.1 °F /  2.8 °C 29.82in /  1009.7hPa SSW 4.0mph /  6.4km/h 6.0mph /  9.7km/h 28% 0.00in /  0mm
17:01 71.9 °F /  22.2 °C 35.2 °F /  1.8 °C 29.82in /  1009.7hPa SSW 3.0mph /  4.8km/h 5.0mph /  8km/h 26% 0.00in /  0mm
17:06 71.8 °F /  22.1 °C 37.0 °F /  2.8 °C 29.82in /  1009.7hPa SSE 3.0mph /  4.8km/h 4.0mph /  6.4km/h 28% 0.00in /  0mm
17:11 71.4 °F /  21.9 °C 35.7 °F /  2.1 °C 29.82in /  1009.7hPa SSE 2.0mph /  3.2km/h 6.0mph /  9.7km/h 27% 0.00in /  0mm
17:16 71.6 °F /  22 °C 36.8 °F /  2.7 °C 29.81in /  1009.4hPa Calm   3.0mph /  4.8km/h 28% 0.00in /  0mm
17:21 71.8 °F /  22.1 °C 37.9 °F /  3.3 °C 29.81in /  1009.4hPa South 2.0mph /  3.2km/h 3.0mph /  4.8km/h 29% 0.00in /  0mm
17:27 71.8 °F /  22.1 °C 39.6 °F /  4.2 °C 29.81in /  1009.4hPa SSW 2.0mph /  3.2km/h 4.0mph /  6.4km/h 31% 0.00in /  0mm
17:32 71.6 °F /  22 °C 38.6 °F /  3.7 °C 29.81in /  1009.4hPa South 4.0mph /  6.4km/h 5.0mph /  8km/h 30% 0.00in /  0mm
17:37 71.4 °F /  21.9 °C 35.7 °F /  2.1 °C 29.81in /  1009.4hPa South 2.0mph /  3.2km/h 4.0mph /  6.4km/h 27% 0.00in /  0mm
17:42 71.3 °F /  21.8 °C 36.5 °F /  2.5 °C 29.81in /  1009.4hPa SSE 3.0mph /  4.8km/h 5.0mph /  8km/h 28% 0.00in /  0mm
17:47 71.0 °F /  21.7 °C 38.0 °F /  3.3 °C 29.81in /  1009.4hPa SSE 3.0mph /  4.8km/h 3.0mph /  4.8km/h 30% 0.00in /  0mm
17:52 70.4 °F /  21.3 °C 40.7 °F /  4.8 °C 29.81in /  1009.4hPa SE 2.0mph /  3.2km/h 4.0mph /  6.4km/h 34% 0.00in /  0mm
17:57 69.9 °F /  21.1 °C 40.3 °F /  4.6 °C 29.81in /  1009.4hPa SE 4.0mph /  6.4km/h 4.0mph /  6.4km/h 34% 0.00in /  0mm
18:02 69.4 °F /  20.8 °C 39.1 °F /  3.9 °C 29.80in /  1009hPa SE 2.0mph /  3.2km/h 4.0mph /  6.4km/h 33% 0.00in /  0mm
18:07 69.1 °F /  20.6 °C 38.8 °F /  3.8 °C 29.81in /  1009.4hPa SE 1.0mph /  1.6km/h 3.0mph /  4.8km/h 33% 0.00in /  0mm
18:12 68.7 °F /  20.4 °C 39.2 °F /  4 °C 29.81in /  1009.4hPa SE 1.0mph /  1.6km/h 2.0mph /  3.2km/h 34% 0.00in /  0mm
18:17 68.5 °F /  20.3 °C 38.3 °F /  3.5 °C 29.80in /  1009hPa ESE 2.0mph /  3.2km/h 2.0mph /  3.2km/h 33% 0.00in /  0mm
18:22 68.3 °F /  20.2 °C 38.1 °F /  3.4 °C 29.80in /  1009hPa ESE 2.0mph /  3.2km/h 2.0mph /  3.2km/h 33% 0.00in /  0mm
18:27 67.9 °F /  19.9 °C 37.8 °F /  3.2 °C 29.81in /  1009.4hPa ESE 2.0mph /  3.2km/h 2.0mph /  3.2km/h 33% 0.00in /  0mm
18:32 67.3 °F /  19.6 °C 38.7 °F /  3.7 °C 29.80in /  1009hPa ESE 2.0mph /  3.2km/h 2.0mph /  3.2km/h 35% 0.00in /  0mm
18:37 66.6 °F /  19.2 °C 39.5 °F /  4.2 °C 29.80in /  1009hPa Calm   1.0mph /  1.6km/h 37% 0.00in /  0mm
18:42 65.8 °F /  18.8 °C 38.1 °F /  3.4 °C 29.80in /  1009hPa ESE 1.0mph /  1.6km/h 1.0mph /  1.6km/h 36% 0.00in /  0mm
18:47 65.6 °F /  18.7 °C 38.0 °F /  3.3 °C 29.80in /  1009hPa ESE 2.0mph /  3.2km/h 2.0mph /  3.2km/h 36% 0.00in /  0mm
18:52 65.3 °F /  18.5 °C 38.4 °F /  3.6 °C 29.80in /  1009hPa ESE 2.0mph /  3.2km/h 2.0mph /  3.2km/h 37% 0.00in /  0mm
18:57 64.8 °F /  18.2 °C 38.6 °F /  3.7 °C 29.80in /  1009hPa ESE 3.0mph /  4.8km/h 3.0mph /  4.8km/h 38% 0.00in /  0mm
19:02 64.5 °F /  18.1 °C 38.3 °F /  3.5 °C 29.80in /  1009hPa ESE 3.0mph /  4.8km/h 3.0mph /  4.8km/h 38% 0.00in /  0mm
19:07 64.5 °F /  18.1 °C 37.7 °F /  3.2 °C 29.80in /  1009hPa ESE 2.0mph /  3.2km/h 2.0mph /  3.2km/h 37% 0.00in /  0mm
19:12 64.6 °F /  18.1 °C 37.8 °F /  3.2 °C 29.80in /  1009hPa ESE 2.0mph /  3.2km/h 3.0mph /  4.8km/h 37% 0.00in /  0mm
19:17 64.6 °F /  18.1 °C 37.8 °F /  3.2 °C 29.80in /  1009hPa ESE 2.0mph /  3.2km/h 3.0mph /  4.8km/h 37% 0.00in /  0mm
19:22 64.6 °F /  18.1 °C 38.4 °F /  3.6 °C 29.80in /  1009hPa ESE 3.0mph /  4.8km/h 3.0mph /  4.8km/h 38% 0.00in /  0mm
19:27 64.3 °F /  17.9 °C 37.5 °F /  3.1 °C 29.79in /  1008.7hPa ESE 3.0mph /  4.8km/h 3.0mph /  4.8km/h 37% 0.00in /  0mm
19:32 64.5 °F /  18.1 °C 37.7 °F /  3.2 °C 29.80in /  1009hPa ESE 2.0mph /  3.2km/h 3.0mph /  4.8km/h 37% 0.00in /  0mm
19:37 64.5 °F /  18.1 °C 37.7 °F /  3.2 °C 29.79in /  1008.7hPa East 3.0mph /  4.8km/h 4.0mph /  6.4km/h 37% 0.00in /  0mm
19:42 64.3 °F /  17.9 °C 37.5 °F /  3.1 °C 29.79in /  1008.7hPa ESE 2.0mph /  3.2km/h 3.0mph /  4.8km/h 37% 0.00in /  0mm
19:47 63.8 °F /  17.7 °C 37.7 °F /  3.2 °C 29.79in /  1008.7hPa ESE 2.0mph /  3.2km/h 4.0mph /  6.4km/h 38% 0.00in /  0mm
19:52 63.3 °F /  17.4 °C 38.0 °F /  3.3 °C 29.79in /  1008.7hPa East 2.0mph /  3.2km/h 2.0mph /  3.2km/h 39% 0.00in /  0mm
19:57 63.4 °F /  17.4 °C 38.0 °F /  3.3 °C 29.79in /  1008.7hPa East 2.0mph /  3.2km/h 3.0mph /  4.8km/h 39% 0.00in /  0mm
20:02 63.6 °F /  17.6 °C 37.5 °F /  3.1 °C 29.79in /  1008.7hPa East 3.0mph /  4.8km/h 3.0mph /  4.8km/h 38% 0.00in /  0mm
20:07 63.8 °F /  17.7 °C 37.7 °F /  3.2 °C 29.78in /  1008.4hPa ESE 3.0mph /  4.8km/h 4.0mph /  6.4km/h 38% 0.00in /  0mm
20:13 63.7 °F /  17.6 °C 38.3 °F /  3.5 °C 29.78in /  1008.4hPa ESE 2.0mph /  3.2km/h 3.0mph /  4.8km/h 39% 0.00in /  0mm
20:18 63.7 °F /  17.6 °C 38.3 °F /  3.5 °C 29.78in /  1008.4hPa ESE 5.0mph /  8km/h 5.0mph /  8km/h 39% 0.00in /  0mm
20:23 63.3 °F /  17.4 °C 38.6 °F /  3.7 °C 29.78in /  1008.4hPa ESE 2.0mph /  3.2km/h 4.0mph /  6.4km/h 40% 0.00in /  0mm
20:28 63.2 °F /  17.3 °C 38.5 °F /  3.6 °C 29.78in /  1008.4hPa ESE 2.0mph /  3.2km/h 3.0mph /  4.8km/h 40% 0.00in /  0mm
20:33 63.1 °F /  17.3 °C 37.8 °F /  3.2 °C 29.78in /  1008.4hPa ESE 2.0mph /  3.2km/h 3.0mph /  4.8km/h 39% 0.00in /  0mm
20:38 62.9 °F /  17.2 °C 38.9 °F /  3.8 °C 29.78in /  1008.4hPa ESE 2.0mph /  3.2km/h 2.0mph /  3.2km/h 41% 0.00in /  0mm
20:43 62.3 °F /  16.8 °C 38.3 °F /  3.5 °C 29.78in /  1008.4hPa ESE 3.0mph /  4.8km/h 3.0mph /  4.8km/h 41% 0.00in /  0mm
20:48 61.7 °F /  16.5 °C 37.8 °F /  3.2 °C 29.77in /  1008hPa SE 2.0mph /  3.2km/h 3.0mph /  4.8km/h 41% 0.00in /  0mm
20:53 61.4 °F /  16.3 °C 38.1 °F /  3.4 °C 29.77in /  1008hPa SE 3.0mph /  4.8km/h 3.0mph /  4.8km/h 42% 0.00in /  0mm
20:58 62.0 °F /  16.7 °C 38.0 °F /  3.3 °C 29.77in /  1008hPa ESE 4.0mph /  6.4km/h 4.0mph /  6.4km/h 41% 0.00in /  0mm
21:03 62.4 °F /  16.9 °C 39.0 °F /  3.9 °C 29.77in /  1008hPa SE 4.0mph /  6.4km/h 4.0mph /  6.4km/h 42% 0.00in /  0mm
21:08 62.2 °F /  16.8 °C 38.8 °F /  3.8 °C 29.77in /  1008hPa SE 4.0mph /  6.4km/h 5.0mph /  8km/h 42% 0.00in /  0mm
21:13 62.2 °F /  16.8 °C 38.8 °F /  3.8 °C 29.77in /  1008hPa ESE 4.0mph /  6.4km/h 5.0mph /  8km/h 42% 0.00in /  0mm
21:18 62.4 °F /  16.9 °C 39.6 °F /  4.2 °C 29.77in /  1008hPa SE 4.0mph /  6.4km/h 5.0mph /  8km/h 43% 0.00in /  0mm
21:23 62.1 °F /  16.7 °C 40.0 °F /  4.4 °C 29.77in /  1008hPa ESE 4.0mph /  6.4km/h 4.0mph /  6.4km/h 44% 0.00in /  0mm
21:28 61.7 °F /  16.5 °C 40.2 °F /  4.6 °C 29.77in /  1008hPa ESE 4.0mph /  6.4km/h 6.0mph /  9.7km/h 45% 0.00in /  0mm
21:33 61.8 °F /  16.6 °C 40.3 °F /  4.6 °C 29.77in /  1008hPa SE 4.0mph /  6.4km/h 5.0mph /  8km/h 45% 0.00in /  0mm
21:38 62.1 °F /  16.7 °C 40.0 °F /  4.4 °C 29.77in /  1008hPa ESE 4.0mph /  6.4km/h 5.0mph /  8km/h 44% 0.00in /  0mm
21:43 62.2 °F /  16.8 °C 39.5 °F /  4.2 °C 29.77in /  1008hPa SE 4.0mph /  6.4km/h 5.0mph /  8km/h 43% 0.00in /  0mm
21:48 62.0 °F /  16.7 °C 39.9 °F /  4.4 °C 29.77in /  1008hPa ESE 4.0mph /  6.4km/h 5.0mph /  8km/h 44% 0.00in /  0mm
21:53 62.0 °F /  16.7 °C 39.9 °F /  4.4 °C 29.77in /  1008hPa ESE 3.0mph /  4.8km/h 4.0mph /  6.4km/h 44% 0.00in /  0mm
21:58 62.0 °F /  16.7 °C 40.4 °F /  4.7 °C 29.77in /  1008hPa East 3.0mph /  4.8km/h 5.0mph /  8km/h 45% 0.00in /  0mm
22:03 61.7 °F /  16.5 °C 40.7 °F /  4.8 °C 29.77in /  1008hPa ESE 4.0mph /  6.4km/h 4.0mph /  6.4km/h 46% 0.00in /  0mm
22:08 61.6 °F /  16.4 °C 40.6 °F /  4.8 °C 29.77in /  1008hPa East 4.0mph /  6.4km/h 5.0mph /  8km/h 46% 0.00in /  0mm
22:13 61.6 °F /  16.4 °C 40.6 °F /  4.8 °C 29.77in /  1008hPa ESE 4.0mph /  6.4km/h 5.0mph /  8km/h 46% 0.00in /  0mm
22:18 61.6 °F /  16.4 °C 40.6 °F /  4.8 °C 29.77in /  1008hPa ESE 3.0mph /  4.8km/h 4.0mph /  6.4km/h 46% 0.00in /  0mm
22:23 61.7 °F /  16.5 °C 40.7 °F /  4.8 °C 29.77in /  1008hPa ESE 5.0mph /  8km/h 5.0mph /  8km/h 46% 0.00in /  0mm
22:28 62.0 °F /  16.7 °C 41.6 °F /  5.3 °C 29.77in /  1008hPa ESE 4.0mph /  6.4km/h 5.0mph /  8km/h 47% 0.00in /  0mm
22:33 61.9 °F /  16.6 °C 41.5 °F /  5.3 °C 29.77in /  1008hPa ESE 4.0mph /  6.4km/h 5.0mph /  8km/h 47% 0.00in /  0mm
22:38 62.1 °F /  16.7 °C 42.2 °F /  5.7 °C 29.77in /  1008hPa SE 3.0mph /  4.8km/h 6.0mph /  9.7km/h 48% 0.00in /  0mm
22:43 62.0 °F /  16.7 °C 43.2 °F /  6.2 °C 29.77in /  1008hPa ESE 6.0mph /  9.7km/h 6.0mph /  9.7km/h 50% 0.00in /  0mm
22:48 62.1 °F /  16.7 °C 43.8 °F /  6.6 °C 29.77in /  1008hPa SE 4.0mph /  6.4km/h 5.0mph /  8km/h 51% 0.00in /  0mm
22:53 62.3 °F /  16.8 °C 44.5 °F /  6.9 °C 29.77in /  1008hPa ESE 4.0mph /  6.4km/h 6.0mph /  9.7km/h 52% 0.00in /  0mm
22:58 62.4 °F /  16.9 °C 45.1 °F /  7.3 °C 29.76in /  1007.7hPa SE 3.0mph /  4.8km/h 6.0mph /  9.7km/h 53% 0.00in /  0mm
23:03 62.4 °F /  16.9 °C 45.1 °F /  7.3 °C 29.76in /  1007.7hPa ESE 5.0mph /  8km/h 5.0mph /  8km/h 53% 0.00in /  0mm
23:08 62.4 °F /  16.9 °C 46.0 °F /  7.8 °C 29.76in /  1007.7hPa SE 4.0mph /  6.4km/h 6.0mph /  9.7km/h 55% 0.00in /  0mm
23:13 62.4 °F /  16.9 °C 46.0 °F /  7.8 °C 29.76in /  1007.7hPa SE 2.0mph /  3.2km/h 5.0mph /  8km/h 55% 0.00in /  0mm
23:18 62.6 °F /  17 °C 46.7 °F /  8.2 °C 29.76in /  1007.7hPa SE 4.0mph /  6.4km/h 6.0mph /  9.7km/h 56% 0.00in /  0mm
23:24 62.7 °F /  17.1 °C 47.7 °F /  8.7 °C 29.75in /  1007.3hPa ESE 4.0mph /  6.4km/h 5.0mph /  8km/h 58% 0.00in /  0mm
23:29 62.8 °F /  17.1 °C 48.3 °F /  9.1 °C 29.75in /  1007.3hPa ESE 7.0mph /  11.3km/h 8.0mph /  12.9km/h 59% 0.00in /  0mm
23:34 62.9 °F /  17.2 °C 49.7 °F /  9.8 °C 29.75in /  1007.3hPa SSE 8.0mph /  12.9km/h 10.0mph /  16.1km/h 62% 0.00in /  0mm
23:39 62.9 °F /  17.2 °C 49.7 °F /  9.8 °C 29.75in /  1007.3hPa SE 5.0mph /  8km/h 7.0mph /  11.3km/h 62% 0.00in /  0mm
23:44 62.7 °F /  17.1 °C 49.9 °F /  9.9 °C 29.75in /  1007.3hPa SSE 6.0mph /  9.7km/h 7.0mph /  11.3km/h 63% 0.00in /  0mm
23:49 62.4 °F /  16.9 °C 50.5 °F /  10.3 °C 29.75in /  1007.3hPa SE 5.0mph /  8km/h 7.0mph /  11.3km/h 65% 0.00in /  0mm
23:54 62.3 °F /  16.8 °C 50.8 °F /  10.4 °C 29.75in /  1007.3hPa SE 5.0mph /  8km/h 7.0mph /  11.3km/h 66% 0.00in /  0mm
23:59 62.4 °F /  16.9 °C 51.3 °F /  10.7 °C 29.75in /  1007.3hPa SE 6.0mph /  9.7km/h 6.0mph /  9.7km/h 67% 0.00in /  0mm
Compliments of Weather Underground